CheckWX is a tool to help pilots better visualize weather data.  It is not intended as a substitute for an official pre-flight weather briefing.

08:13:22 UTC

4I3 METAR
Knox County Airport
Mount Vernon, Ohio, USA
Current

18 mins ago

K4I3 260755Z AUTO 23007KT 10SM OVC015 M00/M02 A2990 RMK AO2
Observed
Jan-26 @ 07:55 UTC
Wind
  • 230° at 7 KTS
Visibility
10 SM
Flight Rules
MVFR
Cloud Levels
  • Overcast at 1,500' AGL
Temperature
C / 32°F
Dewpoint
-2°C / 28°F
Humidity
87%
Altimeter
29.9" Hg
Pressure
1012.52 hPa
Previous

38 mins ago

K4I3 260735Z AUTO 24009G14KT 10SM OVC015 M00/M02 A2991 RMK AO2
Observed
Jan-26 @ 07:35 UTC
Wind
  • 240° at 9 KTS
  • Gusting to 14 KTS
Visibility
10 SM
Flight Rules
MVFR
Cloud Levels
  • Overcast at 1,500' AGL
Temperature
C / 32°F
Dewpoint
-2°C / 28°F
Humidity
87%
Altimeter
29.91" Hg
Pressure
1012.92 hPa
Previous

58 mins ago

K4I3 260715Z AUTO 24008KT 10SM OVC013 M00/M02 A2991 RMK AO2
Observed
Jan-26 @ 07:15 UTC
Wind
  • 240° at 8 KTS
Visibility
10 SM
Flight Rules
MVFR
Cloud Levels
  • Overcast at 1,300' AGL
Temperature
C / 32°F
Dewpoint
-2°C / 28°F
Humidity
87%
Altimeter
29.91" Hg
Pressure
1012.92 hPa